sensor_id;sensor_type;location;lat;lon;timestamp;pressure;altitude;pressure_sealevel;temperature;humidity
72855;BME280;60991;51.278;22.550;2023-08-30T00:00:08;98071.94;;;23.19;72.52
72855;BME280;60991;51.278;22.550;2023-08-30T00:01:38;98080.91;;;23.23;72.34
72855;BME280;60991;51.278;22.550;2023-08-30T00:03:08;98075.50;;;23.23;72.02
72855;BME280;60991;51.278;22.550;2023-08-30T00:04:38;98070.88;;;23.23;72.40
72855;BME280;60991;51.278;22.550;2023-08-30T00:06:09;98068.16;;;23.23;72.48
72855;BME280;60991;51.278;22.550;2023-08-30T00:07:39;98065.88;;;23.25;72.26
72855;BME280;60991;51.278;22.550;2023-08-30T00:09:09;98060.56;;;23.29;71.85
72855;BME280;60991;51.278;22.550;2023-08-30T00:10:39;98059.41;;;23.30;71.91
72855;BME280;60991;51.278;22.550;2023-08-30T00:12:10;98072.88;;;23.26;72.11
72855;BME280;60991;51.278;22.550;2023-08-30T00:13:40;98091.03;;;23.26;72.05
72855;BME280;60991;51.278;22.550;2023-08-30T00:15:10;98087.91;;;23.24;71.89
72855;BME280;60991;51.278;22.550;2023-08-30T00:16:40;98090.59;;;23.24;71.94
72855;BME280;60991;51.278;22.550;2023-08-30T00:18:10;98081.69;;;23.23;72.09
72855;BME280;60991;51.278;22.550;2023-08-30T00:19:41;98085.09;;;23.20;72.19
72855;BME280;60991;51.278;22.550;2023-08-30T00:21:11;98091.69;;;23.19;71.89
72855;BME280;60991;51.278;22.550;2023-08-30T00:22:41;98099.38;;;23.17;72.41
72855;BME280;60991;51.278;22.550;2023-08-30T00:24:11;98108.63;;;23.16;72.33
72855;BME280;60991;51.278;22.550;2023-08-30T00:25:41;98098.59;;;23.17;71.97
72855;BME280;60991;51.278;22.550;2023-08-30T00:27:12;98100.41;;;23.12;72.10
72855;BME280;60991;51.278;22.550;2023-08-30T00:28:42;98095.78;;;23.13;72.25
72855;BME280;60991;51.278;22.550;2023-08-30T00:30:12;98089.94;;;23.11;72.04
72855;BME280;60991;51.278;22.550;2023-08-30T00:31:42;98084.53;;;23.11;71.91
72855;BME280;60991;51.278;22.550;2023-08-30T00:33:13;98078.31;;;23.10;72.13
72855;BME280;60991;51.278;22.550;2023-08-30T00:34:43;98065.13;;;23.09;72.18
72855;BME280;60991;51.278;22.550;2023-08-30T00:36:13;98053.16;;;23.10;71.97
72855;BME280;60991;51.278;22.550;2023-08-30T00:37:43;98039.91;;;23.05;72.33
72855;BME280;60991;51.278;22.550;2023-08-30T00:39:14;98032.06;;;23.00;72.42
72855;BME280;60991;51.278;22.550;2023-08-30T00:40:44;98037.47;;;23.00;72.52
72855;BME280;60991;51.278;22.550;2023-08-30T00:42:14;98017.03;;;23.02;72.47
72855;BME280;60991;51.278;22.550;2023-08-30T00:43:44;98012.84;;;23.05;72.34
72855;BME280;60991;51.278;22.550;2023-08-30T00:45:14;98009.78;;;23.06;72.26
72855;BME280;60991;51.278;22.550;2023-08-30T00:46:45;97994.31;;;23.07;72.13
72855;BME280;60991;51.278;22.550;2023-08-30T00:48:15;97986.63;;;23.09;71.73
72855;BME280;60991;51.278;22.550;2023-08-30T00:49:47;97981.47;;;23.04;71.88
72855;BME280;60991;51.278;22.550;2023-08-30T00:51:17;97975.22;;;23.00;72.22
72855;BME280;60991;51.278;22.550;2023-08-30T00:52:47;97975.16;;;22.96;72.15
72855;BME280;60991;51.278;22.550;2023-08-30T00:54:18;97970.78;;;22.92;72.09
72855;BME280;60991;51.278;22.550;2023-08-30T00:55:48;97966.34;;;22.84;72.58
72855;BME280;60991;51.278;22.550;2023-08-30T00:57:19;97968.78;;;22.73;72.84
72855;BME280;60991;51.278;22.550;2023-08-30T00:58:49;97969.38;;;22.66;73.32
72855;BME280;60991;51.278;22.550;2023-08-30T01:00:19;97977.00;;;22.61;73.55
72855;BME280;60991;51.278;22.550;2023-08-30T01:01:50;97986.69;;;22.46;74.16
72855;BME280;60991;51.278;22.550;2023-08-30T01:03:20;97994.44;;;22.32;74.41
72855;BME280;60991;51.278;22.550;2023-08-30T01:04:51;97999.16;;;22.19;75.16
72855;BME280;60991;51.278;22.550;2023-08-30T01:06:21;98018.16;;;22.07;75.52
72855;BME280;60991;51.278;22.550;2023-08-30T01:07:52;98026.38;;;21.98;75.96
72855;BME280;60991;51.278;22.550;2023-08-30T01:09:23;98031.50;;;21.88;76.56
72855;BME280;60991;51.278;22.550;2023-08-30T01:11:04;98030.84;;;21.78;76.81
72855;BME280;60991;51.278;22.550;2023-08-30T01:12:45;98032.13;;;21.69;77.38
72855;BME280;60991;51.278;22.550;2023-08-30T01:14:33;98040.03;;;21.62;77.38
72855;BME280;60991;51.278;22.550;2023-08-30T01:16:05;98049.53;;;21.71;77.26
72855;BME280;60991;51.278;22.550;2023-08-30T01:17:35;98066.06;;;21.82;77.14
72855;BME280;60991;51.278;22.550;2023-08-30T01:19:31;98067.94;;;21.94;76.97
72855;BME280;60991;51.278;22.550;2023-08-30T01:21:11;98072.38;;;22.14;76.00
72855;BME280;60991;51.278;22.550;2023-08-30T01:24:45;98074.19;;;22.38;75.54
72855;BME280;60991;51.278;22.550;2023-08-30T01:28:11;98067.41;;;22.60;74.50
72855;BME280;60991;51.278;22.550;2023-08-30T01:29:44;98057.09;;;22.65;74.45
72855;BME280;60991;51.278;22.550;2023-08-30T01:31:15;98056.50;;;22.72;74.07
72855;BME280;60991;51.278;22.550;2023-08-30T01:32:46;98053.22;;;22.78;73.79
72855;BME280;60991;51.278;22.550;2023-08-30T01:34:17;98047.91;;;22.82;73.72
72855;BME280;60991;51.278;22.550;2023-08-30T01:35:48;98032.84;;;22.85;73.80
72855;BME280;60991;51.278;22.550;2023-08-30T01:37:18;98018.63;;;22.88;73.63
72855;BME280;60991;51.278;22.550;2023-08-30T01:38:49;98013.66;;;22.90;73.37
72855;BME280;60991;51.278;22.550;2023-08-30T01:40:20;97997.94;;;22.95;73.39
72855;BME280;60991;51.278;22.550;2023-08-30T01:41:51;97978.63;;;22.97;73.57
72855;BME280;60991;51.278;22.550;2023-08-30T01:43:23;97961.25;;;22.98;73.25
72855;BME280;60991;51.278;22.550;2023-08-30T01:44:56;97922.50;;;22.94;73.35
72855;BME280;60991;51.278;22.550;2023-08-30T01:46:28;97876.22;;;22.79;73.39
72855;BME280;60991;51.278;22.550;2023-08-30T01:47:59;97854.72;;;22.71;73.61
72855;BME280;60991;51.278;22.550;2023-08-30T01:49:30;97883.13;;;22.61;74.13
72855;BME280;60991;51.278;22.550;2023-08-30T01:51:02;97931.41;;;22.43;74.77
72855;BME280;60991;51.278;22.550;2023-08-30T01:52:33;97951.97;;;22.32;75.28
72855;BME280;60991;51.278;22.550;2023-08-30T01:54:05;97953.81;;;22.28;75.92
72855;BME280;60991;51.278;22.550;2023-08-30T01:55:38;97962.53;;;22.22;76.25
72855;BME280;60991;51.278;22.550;2023-08-30T01:57:09;97960.00;;;22.13;76.35
72855;BME280;60991;51.278;22.550;2023-08-30T01:58:39;97968.38;;;22.08;76.56
72855;BME280;60991;51.278;22.550;2023-08-30T02:00:09;97984.06;;;21.90;77.01
72855;BME280;60991;51.278;22.550;2023-08-30T02:01:40;97994.59;;;21.80;77.35
72855;BME280;60991;51.278;22.550;2023-08-30T02:03:12;98005.66;;;21.74;78.00
72855;BME280;60991;51.278;22.550;2023-08-30T02:04:42;98013.31;;;21.72;77.90
72855;BME280;60991;51.278;22.550;2023-08-30T02:06:21;98007.19;;;21.88;77.64
72855;BME280;60991;51.278;22.550;2023-08-30T02:08:14;98013.44;;;22.04;76.88
72855;BME280;60991;51.278;22.550;2023-08-30T02:09:56;98011.53;;;22.04;76.91
72855;BME280;60991;51.278;22.550;2023-08-30T02:11:28;98010.84;;;22.07;76.51
72855;BME280;60991;51.278;22.550;2023-08-30T02:13:03;98014.66;;;22.06;77.01
72855;BME280;60991;51.278;22.550;2023-08-30T02:14:35;98025.47;;;22.06;76.52
72855;BME280;60991;51.278;22.550;2023-08-30T02:16:08;98037.31;;;22.02;77.01
72855;BME280;60991;51.278;22.550;2023-08-30T02:17:39;98030.59;;;22.11;76.20
72855;BME280;60991;51.278;22.550;2023-08-30T02:19:09;98028.19;;;22.22;76.14
72855;BME280;60991;51.278;22.550;2023-08-30T02:20:41;98032.41;;;22.35;75.82
72855;BME280;60991;51.278;22.550;2023-08-30T02:22:11;98031.25;;;22.36;75.36
72855;BME280;60991;51.278;22.550;2023-08-30T02:23:42;98037.22;;;22.42;75.41
72855;BME280;60991;51.278;22.550;2023-08-30T02:25:12;98033.19;;;22.36;75.44
72855;BME280;60991;51.278;22.550;2023-08-30T02:26:42;98035.63;;;22.41;75.22
72855;BME280;60991;51.278;22.550;2023-08-30T02:28:12;98030.03;;;22.34;75.01
72855;BME280;60991;51.278;22.550;2023-08-30T02:29:43;98026.66;;;22.37;75.09
72855;BME280;60991;51.278;22.550;2023-08-30T02:31:13;98019.31;;;22.37;75.39
72855;BME280;60991;51.278;22.550;2023-08-30T02:32:43;98010.59;;;22.44;74.79
72855;BME280;60991;51.278;22.550;2023-08-30T02:34:13;98016.44;;;22.46;74.54
72855;BME280;60991;51.278;22.550;2023-08-30T02:35:43;98005.69;;;22.50;74.34
72855;BME280;60991;51.278;22.550;2023-08-30T02:37:14;97990.16;;;22.46;74.29
72855;BME280;60991;51.278;22.550;2023-08-30T02:38:44;97984.06;;;22.50;74.28
72855;BME280;60991;51.278;22.550;2023-08-30T02:40:14;97986.44;;;22.51;73.92
72855;BME280;60991;51.278;22.550;2023-08-30T02:41:44;97989.66;;;22.57;74.16
72855;BME280;60991;51.278;22.550;2023-08-30T02:43:14;97980.06;;;22.59;73.79
72855;BME280;60991;51.278;22.550;2023-08-30T02:44:45;97978.94;;;22.60;73.59
72855;BME280;60991;51.278;22.550;2023-08-30T02:46:15;97975.16;;;22.65;73.25
72855;BME280;60991;51.278;22.550;2023-08-30T02:47:45;97971.75;;;22.68;73.37
72855;BME280;60991;51.278;22.550;2023-08-30T02:49:15;97962.50;;;22.69;73.46
72855;BME280;60991;51.278;22.550;2023-08-30T02:50:45;97961.72;;;22.68;73.21
72855;BME280;60991;51.278;22.550;2023-08-30T02:52:17;97967.56;;;22.70;73.23
72855;BME280;60991;51.278;22.550;2023-08-30T02:53:47;97965.28;;;22.72;73.09
72855;BME280;60991;51.278;22.550;2023-08-30T02:55:17;97971.50;;;22.73;72.87
72855;BME280;60991;51.278;22.550;2023-08-30T02:56:48;97973.06;;;22.74;72.70
72855;BME280;60991;51.278;22.550;2023-08-30T02:58:18;97975.41;;;22.75;72.87
72855;BME280;60991;51.278;22.550;2023-08-30T02:59:48;97980.81;;;22.75;72.58
72855;BME280;60991;51.278;22.550;2023-08-30T03:01:19;97990.50;;;22.76;72.60
72855;BME280;60991;51.278;22.550;2023-08-30T03:02:49;97997.53;;;22.77;72.56
72855;BME280;60991;51.278;22.550;2023-08-30T03:04:19;98000.66;;;22.79;72.37
72855;BME280;60991;51.278;22.550;2023-08-30T03:05:49;98003.81;;;22.82;72.39
72855;BME280;60991;51.278;22.550;2023-08-30T03:07:19;97995.31;;;22.83;72.15
72855;BME280;60991;51.278;22.550;2023-08-30T03:08:50;97991.47;;;22.84;72.28
72855;BME280;60991;51.278;22.550;2023-08-30T03:10:20;97987.19;;;22.83;72.13
72855;BME280;60991;51.278;22.550;2023-08-30T03:11:50;97994.97;;;22.85;72.13
72855;BME280;60991;51.278;22.550;2023-08-30T03:13:20;97996.09;;;22.84;72.43
72855;BME280;60991;51.278;22.550;2023-08-30T03:14:51;97998.03;;;22.83;71.93
72855;BME280;60991;51.278;22.550;2023-08-30T03:16:21;97986.78;;;22.81;72.36
72855;BME280;60991;51.278;22.550;2023-08-30T03:17:51;97984.44;;;22.79;72.32
72855;BME280;60991;51.278;22.550;2023-08-30T03:19:22;97981.38;;;22.81;72.06
72855;BME280;60991;51.278;22.550;2023-08-30T03:21:00;97988.94;;;22.75;72.38
72855;BME280;60991;51.278;22.550;2023-08-30T03:22:33;97994.69;;;22.74;72.09
72855;BME280;60991;51.278;22.550;2023-08-30T03:24:03;97995.94;;;22.76;72.00
72855;BME280;60991;51.278;22.550;2023-08-30T03:25:34;97997.84;;;22.76;72.10
72855;BME280;60991;51.278;22.550;2023-08-30T03:27:04;97993.56;;;22.75;72.33
72855;BME280;60991;51.278;22.550;2023-08-30T03:28:34;97999.69;;;22.72;72.33
72855;BME280;60991;51.278;22.550;2023-08-30T03:30:05;98005.44;;;22.70;72.30
72855;BME280;60991;51.278;22.550;2023-08-30T03:31:35;97995.22;;;22.64;72.55
72855;BME280;60991;51.278;22.550;2023-08-30T03:33:05;98002.56;;;22.63;72.44
72855;BME280;60991;51.278;22.550;2023-08-30T03:34:36;97998.72;;;22.49;72.58
72855;BME280;60991;51.278;22.550;2023-08-30T03:36:06;97994.19;;;22.37;73.12
72855;BME280;60991;51.278;22.550;2023-08-30T03:37:36;97993.06;;;22.38;73.01
72855;BME280;60991;51.278;22.550;2023-08-30T03:39:06;97993.84;;;22.38;73.07
72855;BME280;60991;51.278;22.550;2023-08-30T03:40:37;98002.75;;;22.39;73.03
72855;BME280;60991;51.278;22.550;2023-08-30T03:42:07;98009.09;;;22.31;73.74
72855;BME280;60991;51.278;22.550;2023-08-30T03:43:37;98010.66;;;22.32;73.44
72855;BME280;60991;51.278;22.550;2023-08-30T03:45:09;98010.91;;;22.27;73.71
72855;BME280;60991;51.278;22.550;2023-08-30T03:46:39;98013.63;;;22.27;73.91
72855;BME280;60991;51.278;22.550;2023-08-30T03:48:09;98025.16;;;22.24;74.04
72855;BME280;60991;51.278;22.550;2023-08-30T03:49:39;98031.25;;;22.21;74.17
72855;BME280;60991;51.278;22.550;2023-08-30T03:51:10;98028.31;;;22.26;73.86
72855;BME280;60991;51.278;22.550;2023-08-30T03:52:40;98025.94;;;22.24;73.41
72855;BME280;60991;51.278;22.550;2023-08-30T03:54:10;98028.66;;;22.24;73.45
72855;BME280;60991;51.278;22.550;2023-08-30T03:55:41;98039.47;;;22.24;73.84
72855;BME280;60991;51.278;22.550;2023-08-30T03:57:11;98037.19;;;22.26;73.42
72855;BME280;60991;51.278;22.550;2023-08-30T03:58:41;98025.41;;;22.19;73.80
72855;BME280;60991;51.278;22.550;2023-08-30T04:00:11;98025.31;;;22.15;73.61
72855;BME280;60991;51.278;22.550;2023-08-30T04:01:42;98026.72;;;22.25;73.47
72855;BME280;60991;51.278;22.550;2023-08-30T04:03:14;98034.22;;;22.31;73.45
72855;BME280;60991;51.278;22.550;2023-08-30T04:04:47;98045.13;;;22.35;73.48
72855;BME280;60991;51.278;22.550;2023-08-30T04:06:18;98044.09;;;22.39;72.93
72855;BME280;60991;51.278;22.550;2023-08-30T04:07:48;98046.44;;;22.41;73.00
72855;BME280;60991;51.278;22.550;2023-08-30T04:09:18;98047.69;;;22.43;72.67
72855;BME280;60991;51.278;22.550;2023-08-30T04:10:52;98047.34;;;22.45;72.62
72855;BME280;60991;51.278;22.550;2023-08-30T04:12:22;98042.78;;;22.49;72.59
72855;BME280;60991;51.278;22.550;2023-08-30T04:13:53;98044.78;;;22.52;72.46
72855;BME280;60991;51.278;22.550;2023-08-30T04:15:23;98037.91;;;22.55;72.06
72855;BME280;60991;51.278;22.550;2023-08-30T04:16:53;98043.13;;;22.48;72.20
72855;BME280;60991;51.278;22.550;2023-08-30T04:18:23;98041.38;;;22.39;72.80
72855;BME280;60991;51.278;22.550;2023-08-30T04:19:54;98034.75;;;22.21;73.37
72855;BME280;60991;51.278;22.550;2023-08-30T04:21:24;98028.44;;;22.17;73.62
72855;BME280;60991;51.278;22.550;2023-08-30T04:22:54;98023.47;;;22.19;73.66
72855;BME280;60991;51.278;22.550;2023-08-30T04:24:24;98035.44;;;22.18;73.53
72855;BME280;60991;51.278;22.550;2023-08-30T04:25:55;98033.41;;;22.15;73.81
72855;BME280;60991;51.278;22.550;2023-08-30T04:27:25;98026.59;;;22.05;74.16
72855;BME280;60991;51.278;22.550;2023-08-30T04:28:55;98025.59;;;21.98;74.45
72855;BME280;60991;51.278;22.550;2023-08-30T04:30:25;98029.31;;;21.93;74.67
72855;BME280;60991;51.278;22.550;2023-08-30T04:31:56;98025.16;;;21.96;74.58
72855;BME280;60991;51.278;22.550;2023-08-30T04:33:26;98020.88;;;21.95;74.40
72855;BME280;60991;51.278;22.550;2023-08-30T04:34:56;98032.47;;;21.95;74.55
72855;BME280;60991;51.278;22.550;2023-08-30T04:36:26;98025.16;;;21.96;74.77
72855;BME280;60991;51.278;22.550;2023-08-30T04:37:58;98028.41;;;22.01;74.54
72855;BME280;60991;51.278;22.550;2023-08-30T04:39:29;98030.78;;;22.03;74.49
72855;BME280;60991;51.278;22.550;2023-08-30T04:40:59;98036.06;;;21.99;74.72
72855;BME280;60991;51.278;22.550;2023-08-30T04:42:29;98032.44;;;22.07;74.48
72855;BME280;60991;51.278;22.550;2023-08-30T04:44:00;98039.00;;;22.06;74.29
72855;BME280;60991;51.278;22.550;2023-08-30T04:45:30;98029.22;;;22.02;74.74
72855;BME280;60991;51.278;22.550;2023-08-30T04:47:00;98025.72;;;22.01;74.59
72855;BME280;60991;51.278;22.550;2023-08-30T04:48:30;98028.25;;;22.10;74.48
72855;BME280;60991;51.278;22.550;2023-08-30T04:50:01;98017.44;;;22.10;74.65
72855;BME280;60991;51.278;22.550;2023-08-30T04:51:31;98015.19;;;22.12;74.36
72855;BME280;60991;51.278;22.550;2023-08-30T04:53:01;98010.13;;;22.10;74.31
72855;BME280;60991;51.278;22.550;2023-08-30T04:54:31;98010.84;;;22.07;74.22
72855;BME280;60991;51.278;22.550;2023-08-30T04:56:10;98015.44;;;22.07;74.42
72855;BME280;60991;51.278;22.550;2023-08-30T04:57:40;98010.91;;;22.11;74.53
72855;BME280;60991;51.278;22.550;2023-08-30T04:59:10;98014.13;;;22.01;74.95
72855;BME280;60991;51.278;22.550;2023-08-30T05:00:41;98019.75;;;21.96;75.08
72855;BME280;60991;51.278;22.550;2023-08-30T05:02:11;98027.41;;;21.94;75.10
72855;BME280;60991;51.278;22.550;2023-08-30T05:03:42;98033.59;;;21.94;75.38
72855;BME280;60991;51.278;22.550;2023-08-30T05:05:14;98027.41;;;22.06;75.11
72855;BME280;60991;51.278;22.550;2023-08-30T05:06:44;98030.09;;;22.06;75.05
72855;BME280;60991;51.278;22.550;2023-08-30T05:08:14;98032.25;;;22.00;75.56
72855;BME280;60991;51.278;22.550;2023-08-30T05:09:44;98043.97;;;21.92;75.83
72855;BME280;60991;51.278;22.550;2023-08-30T05:11:14;98035.00;;;21.88;75.82
72855;BME280;60991;51.278;22.550;2023-08-30T05:12:45;98037.88;;;21.95;75.84
72855;BME280;60991;51.278;22.550;2023-08-30T05:14:15;98032.81;;;21.94;75.71
72855;BME280;60991;51.278;22.550;2023-08-30T05:15:45;98034.63;;;21.90;76.03
72855;BME280;60991;51.278;22.550;2023-08-30T05:17:15;98032.69;;;21.90;76.06
72855;BME280;60991;51.278;22.550;2023-08-30T05:18:46;98031.19;;;21.77;76.00
72855;BME280;60991;51.278;22.550;2023-08-30T05:20:16;98037.88;;;21.67;76.71
72855;BME280;60991;51.278;22.550;2023-08-30T05:21:46;98040.31;;;21.72;77.09
72855;BME280;60991;51.278;22.550;2023-08-30T05:23:16;98036.94;;;21.75;76.82
72855;BME280;60991;51.278;22.550;2023-08-30T05:24:47;98040.75;;;21.74;76.57
72855;BME280;60991;51.278;22.550;2023-08-30T05:26:17;98040.75;;;21.74;76.72
72855;BME280;60991;51.278;22.550;2023-08-30T05:27:47;98040.59;;;21.67;76.81
72855;BME280;60991;51.278;22.550;2023-08-30T05:29:17;98048.47;;;21.60;76.79
72855;BME280;60991;51.278;22.550;2023-08-30T05:30:47;98043.63;;;21.66;77.10
72855;BME280;60991;51.278;22.550;2023-08-30T05:32:18;98043.00;;;21.72;76.78
72855;BME280;60991;51.278;22.550;2023-08-30T05:33:48;98052.13;;;21.80;76.69
72855;BME280;60991;51.278;22.550;2023-08-30T05:35:18;98043.47;;;21.74;76.89
72855;BME280;60991;51.278;22.550;2023-08-30T05:36:48;98055.50;;;21.77;77.01
72855;BME280;60991;51.278;22.550;2023-08-30T05:38:18;98049.53;;;21.84;76.79
72855;BME280;60991;51.278;22.550;2023-08-30T05:39:49;98045.69;;;21.85;76.50
72855;BME280;60991;51.278;22.550;2023-08-30T05:41:19;98039.59;;;21.88;76.97
72855;BME280;60991;51.278;22.550;2023-08-30T05:42:49;98043.66;;;21.82;76.44
72855;BME280;60991;51.278;22.550;2023-08-30T05:44:19;98049.97;;;21.86;77.21
72855;BME280;60991;51.278;22.550;2023-08-30T05:45:50;98051.19;;;21.88;77.05
72855;BME280;60991;51.278;22.550;2023-08-30T05:47:20;98052.28;;;21.99;76.83
72855;BME280;60991;51.278;22.550;2023-08-30T05:48:51;98052.41;;;22.03;76.33
72855;BME280;60991;51.278;22.550;2023-08-30T05:50:21;98060.59;;;22.06;76.10
72855;BME280;60991;51.278;22.550;2023-08-30T05:51:51;98051.72;;;22.06;75.90
72855;BME280;60991;51.278;22.550;2023-08-30T05:53:22;98058.53;;;22.16;75.72
72855;BME280;60991;51.278;22.550;2023-08-30T05:54:52;98062.56;;;22.22;75.64
72855;BME280;60991;51.278;22.550;2023-08-30T05:56:23;98062.28;;;22.27;75.21
72855;BME280;60991;51.278;22.550;2023-08-30T05:57:53;98052.34;;;22.31;75.07
72855;BME280;60991;51.278;22.550;2023-08-30T05:59:23;98059.50;;;22.23;75.32
72855;BME280;60991;51.278;22.550;2023-08-30T06:00:53;98052.97;;;22.24;75.38
72855;BME280;60991;51.278;22.550;2023-08-30T06:02:23;98058.44;;;22.28;74.97
72855;BME280;60991;51.278;22.550;2023-08-30T06:03:54;98061.31;;;22.19;75.70
72855;BME280;60991;51.278;22.550;2023-08-30T06:05:25;98059.50;;;22.23;75.85
72855;BME280;60991;51.278;22.550;2023-08-30T06:06:56;98063.84;;;22.28;75.62
72855;BME280;60991;51.278;22.550;2023-08-30T06:08:26;98062.91;;;22.20;75.21
72855;BME280;60991;51.278;22.550;2023-08-30T06:09:56;98060.31;;;22.24;75.43
72855;BME280;60991;51.278;22.550;2023-08-30T06:11:27;98060.22;;;22.36;75.03
72855;BME280;60991;51.278;22.550;2023-08-30T06:12:57;98049.06;;;22.37;74.77
72855;BME280;60991;51.278;22.550;2023-08-30T06:14:27;98057.78;;;22.46;74.63
72855;BME280;60991;51.278;22.550;2023-08-30T06:15:57;98059.69;;;22.46;74.44
72855;BME280;60991;51.278;22.550;2023-08-30T06:17:28;98064.06;;;22.51;74.05
72855;BME280;60991;51.278;22.550;2023-08-30T06:18:58;98058.56;;;22.47;74.18
72855;BME280;60991;51.278;22.550;2023-08-30T06:20:28;98056.94;;;22.42;75.07
72855;BME280;60991;51.278;22.550;2023-08-30T06:21:58;98060.13;;;22.32;75.56
72855;BME280;60991;51.278;22.550;2023-08-30T06:23:28;98066.75;;;22.35;75.38
72855;BME280;60991;51.278;22.550;2023-08-30T06:24:59;98071.03;;;22.36;75.90
72855;BME280;60991;51.278;22.550;2023-08-30T06:26:29;98067.19;;;22.37;75.31
72855;BME280;60991;51.278;22.550;2023-08-30T06:27:59;98070.34;;;22.39;75.30
72855;BME280;60991;51.278;22.550;2023-08-30T06:29:29;98081.16;;;22.39;75.24
72855;BME280;60991;51.278;22.550;2023-08-30T06:31:00;98081.25;;;22.42;75.33
72855;BME280;60991;51.278;22.550;2023-08-30T06:32:30;98071.16;;;22.55;74.79
72855;BME280;60991;51.278;22.550;2023-08-30T06:34:00;98072.91;;;22.63;74.85
72855;BME280;60991;51.278;22.550;2023-08-30T06:35:30;98077.00;;;22.73;73.95
72855;BME280;60991;51.278;22.550;2023-08-30T06:37:01;98074.50;;;22.80;73.65
72855;BME280;60991;51.278;22.550;2023-08-30T06:38:31;98086.03;;;22.77;74.14
72855;BME280;60991;51.278;22.550;2023-08-30T06:40:01;98074.44;;;22.64;74.24
72855;BME280;60991;51.278;22.550;2023-08-30T06:41:31;98073.41;;;22.69;74.02
72855;BME280;60991;51.278;22.550;2023-08-30T06:43:01;98076.78;;;22.78;73.86
72855;BME280;60991;51.278;22.550;2023-08-30T06:44:32;98070.59;;;22.77;73.50
72855;BME280;60991;51.278;22.550;2023-08-30T06:46:02;98068.34;;;22.67;73.92
72855;BME280;60991;51.278;22.550;2023-08-30T06:47:32;98074.91;;;22.66;73.62
72855;BME280;60991;51.278;22.550;2023-08-30T06:49:02;98078.66;;;22.62;73.98
72855;BME280;60991;51.278;22.550;2023-08-30T06:50:33;98077.09;;;22.61;73.91
72855;BME280;60991;51.278;22.550;2023-08-30T06:52:04;98071.84;;;22.68;73.88
72855;BME280;60991;51.278;22.550;2023-08-30T06:53:34;98074.44;;;22.64;73.81
72855;BME280;60991;51.278;22.550;2023-08-30T06:55:05;98077.53;;;22.63;73.69
72855;BME280;60991;51.278;22.550;2023-08-30T06:56:35;98076.13;;;22.69;73.71
72855;BME280;60991;51.278;22.550;2023-08-30T06:58:06;98077.34;;;22.71;73.40
72855;BME280;60991;51.278;22.550;2023-08-30T06:59:37;98081.53;;;22.69;73.23
72855;BME280;60991;51.278;22.550;2023-08-30T07:01:07;98081.19;;;22.70;73.24
72855;BME280;60991;51.278;22.550;2023-08-30T07:02:38;98087.38;;;22.71;72.96
72855;BME280;60991;51.278;22.550;2023-08-30T07:04:08;98080.84;;;22.72;72.75
72855;BME280;60991;51.278;22.550;2023-08-30T07:05:38;98095.31;;;22.64;73.67
72855;BME280;60991;51.278;22.550;2023-08-30T07:07:09;98089.56;;;22.65;73.67
72855;BME280;60991;51.278;22.550;2023-08-30T07:08:39;98083.34;;;22.65;73.13
72855;BME280;60991;51.278;22.550;2023-08-30T07:10:09;98085.38;;;22.68;73.51
72855;BME280;60991;51.278;22.550;2023-08-30T07:11:42;98094.63;;;22.67;73.27
72855;BME280;60991;51.278;22.550;2023-08-30T07:13:12;98078.47;;;22.70;73.24
72855;BME280;60991;51.278;22.550;2023-08-30T07:14:42;98081.19;;;22.70;72.93
72855;BME280;60991;51.278;22.550;2023-08-30T07:16:12;98084.16;;;22.65;72.78
72855;BME280;60991;51.278;22.550;2023-08-30T07:17:43;98087.47;;;22.59;73.11
72855;BME280;60991;51.278;22.550;2023-08-30T07:19:13;98087.72;;;22.54;73.57
72855;BME280;60991;51.278;22.550;2023-08-30T07:20:43;98092.09;;;22.58;73.94
72855;BME280;60991;51.278;22.550;2023-08-30T07:22:13;98083.09;;;22.70;73.77
72855;BME280;60991;51.278;22.550;2023-08-30T07:23:44;98086.03;;;22.77;73.08
72855;BME280;60991;51.278;22.550;2023-08-30T07:25:14;98088.03;;;22.80;72.96
72855;BME280;60991;51.278;22.550;2023-08-30T07:26:44;98086.03;;;22.77;73.23
72855;BME280;60991;51.278;22.550;2023-08-30T07:28:14;98092.53;;;22.76;73.21
72855;BME280;60991;51.278;22.550;2023-08-30T07:29:44;98089.69;;;22.85;73.02
72855;BME280;60991;51.278;22.550;2023-08-30T07:31:15;98089.88;;;22.92;72.53
72855;BME280;60991;51.278;22.550;2023-08-30T07:32:45;98087.94;;;22.92;72.66
72855;BME280;60991;51.278;22.550;2023-08-30T07:34:15;98088.38;;;22.94;71.96
72855;BME280;60991;51.278;22.550;2023-08-30T07:35:45;98095.38;;;22.95;71.97
72855;BME280;60991;51.278;22.550;2023-08-30T07:37:18;98097.38;;;22.98;71.84
72855;BME280;60991;51.278;22.550;2023-08-30T07:38:48;98092.66;;;22.95;71.05
72855;BME280;60991;51.278;22.550;2023-08-30T07:40:19;98096.16;;;22.80;71.37
72855;BME280;60991;51.278;22.550;2023-08-30T07:41:49;98086.50;;;22.67;71.37
72855;BME280;60991;51.278;22.550;2023-08-30T07:43:19;98089.03;;;22.60;72.00
72855;BME280;60991;51.278;22.550;2023-08-30T07:44:49;98082.94;;;22.63;71.61
72855;BME280;60991;51.278;22.550;2023-08-30T07:46:20;98091.91;;;22.67;71.37
72855;BME280;60991;51.278;22.550;2023-08-30T07:47:50;98091.47;;;22.65;71.15
72855;BME280;60991;51.278;22.550;2023-08-30T07:49:20;98090.19;;;22.59;71.55
72855;BME280;60991;51.278;22.550;2023-08-30T07:50:50;98094.72;;;22.55;71.51
72855;BME280;60991;51.278;22.550;2023-08-30T07:52:21;98086.25;;;22.56;71.75
72855;BME280;60991;51.278;22.550;2023-08-30T07:53:51;98087.97;;;22.64;71.90
72855;BME280;60991;51.278;22.550;2023-08-30T07:55:21;98085.28;;;22.64;71.79
72855;BME280;60991;51.278;22.550;2023-08-30T07:56:51;98089.22;;;22.67;72.25
72855;BME280;60991;51.278;22.550;2023-08-30T07:58:21;98081.63;;;22.72;72.18